createdAt,value
2024-04-06T00:00:17.088Z,70.4980
2024-04-06T00:01:18.505Z,71.9124
2024-04-06T00:02:19.904Z,70.7825
2024-04-06T00:03:23.807Z,71.7173
2024-04-06T00:04:23.194Z,72.3648
2024-04-06T00:05:24.485Z,74.1703
2024-04-06T00:06:25.733Z,73.5016
2024-04-06T00:07:27.048Z,72.9553
2024-04-06T00:08:28.319Z,74.1179
2024-04-06T00:09:29.608Z,73.6490
2024-04-06T00:10:30.861Z,73.7495
2024-04-06T00:11:32.169Z,71.4662
2024-04-06T00:12:33.635Z,71.9321
2024-04-06T00:13:35.038Z,71.3215
2024-04-06T00:14:36.307Z,71.4385
2024-04-06T00:15:37.587Z,72.6326
2024-04-06T00:16:38.882Z,71.3504
2024-04-06T00:17:40.172Z,72.0211
2024-04-06T00:18:41.611Z,73.0394
2024-04-06T00:19:43.104Z,73.7649
2024-04-06T00:20:44.488Z,75.1385
2024-04-06T00:21:45.940Z,75.4974
2024-04-06T00:22:47.385Z,76.0774
2024-04-06T00:23:48.812Z,75.9885
2024-04-06T00:24:50.255Z,73.0283
2024-04-06T00:25:51.691Z,73.4621
2024-04-06T00:26:53.189Z,74.2752
2024-04-06T00:27:54.556Z,73.6994
2024-04-06T00:28:55.828Z,73.6495
2024-04-06T00:29:57.134Z,74.2013
2024-04-06T00:30:58.392Z,75.0483
2024-04-06T00:31:59.692Z,75.8296
2024-04-06T00:33:01.149Z,74.8933
2024-04-06T00:34:02.591Z,73.5158
2024-04-06T00:35:04.013Z,72.0690
2024-04-06T00:36:05.445Z,72.1113
2024-04-06T00:37:06.888Z,68.8120
2024-04-06T00:38:08.328Z,67.6838
2024-04-06T00:39:09.774Z,69.0322
2024-04-06T00:40:11.240Z,69.5069
2024-04-06T00:41:12.614Z,68.4316
2024-04-06T00:42:14.067Z,66.8977
2024-04-06T00:43:15.506Z,67.3900
2024-04-06T00:44:16.949Z,68.6584
2024-04-06T00:45:18.381Z,68.0176
2024-04-06T00:46:19.827Z,67.4941
2024-04-06T00:47:21.147Z,68.2208
2024-04-06T00:48:22.450Z,68.9052
2024-04-06T00:49:23.725Z,70.4749
2024-04-06T00:50:25.064Z,70.5325
2024-04-06T00:51:26.400Z,68.7921
2024-04-06T00:52:27.819Z,68.7911
2024-04-06T00:53:29.317Z,68.8985
2024-04-06T00:54:30.698Z,69.0431
2024-04-06T00:55:32.147Z,69.5678
2024-04-06T00:56:33.584Z,69.4478
2024-04-06T00:57:35.025Z,68.0656
2024-04-06T00:58:36.365Z,69.2276
2024-04-06T00:59:37.705Z,69.6636
2024-04-06T01:00:39.032Z,70.3229
2024-04-06T01:01:44.326Z,68.1279
2024-04-06T01:02:40.332Z,68.0709
2024-04-06T01:03:41.758Z,67.7093
2024-04-06T01:04:43.198Z,69.0429
2024-04-06T01:05:44.517Z,69.5381
2024-04-06T01:06:45.845Z,67.5010
2024-04-06T01:07:47.183Z,67.3332
2024-04-06T01:08:48.628Z,68.3073
2024-04-06T01:09:50.067Z,67.6690
2024-04-06T01:10:51.506Z,67.6885
2024-04-06T01:11:52.946Z,67.4471
2024-04-06T01:12:54.376Z,66.7711
2024-04-06T01:13:55.816Z,67.4117
2024-04-06T01:14:57.259Z,67.6437
2024-04-06T01:15:58.766Z,67.1782
2024-04-06T01:17:00.157Z,67.5265
2024-04-06T01:18:01.587Z,67.9481
2024-04-06T01:19:03.031Z,67.5339
2024-04-06T01:20:04.462Z,66.6847
2024-04-06T01:21:05.898Z,65.7916
2024-04-06T01:22:07.348Z,65.3378
2024-04-06T01:23:08.644Z,65.6027
2024-04-06T01:24:10.057Z,65.7960
2024-04-06T01:25:11.377Z,66.5381
2024-04-06T01:26:12.846Z,68.0902
2024-04-06T01:27:14.198Z,67.5442
2024-04-06T01:28:15.647Z,67.6126
2024-04-06T01:29:17.070Z,66.6708
2024-04-06T01:30:18.511Z,65.4894
2024-04-06T01:31:19.943Z,65.5230
2024-04-06T01:32:21.477Z,64.9176
2024-04-06T01:33:22.827Z,64.2640
2024-04-06T01:34:24.282Z,63.0820
2024-04-06T01:35:25.862Z,63.1594
2024-04-06T01:36:27.226Z,63.0836
2024-04-06T01:37:28.595Z,63.7009
2024-04-06T01:38:30.107Z,63.0948
2024-04-06T01:39:31.495Z,63.5180
2024-04-06T01:40:33.048Z,64.0966
2024-04-06T01:41:34.378Z,63.9632
2024-04-06T01:42:35.827Z,63.6194
2024-04-06T01:43:37.263Z,63.3300
2024-04-06T01:44:38.711Z,61.8790
2024-04-06T01:45:40.137Z,62.4453
2024-04-06T01:46:41.577Z,61.4853
2024-04-06T01:47:43.026Z,61.3595
2024-04-06T01:48:44.375Z,61.9166
2024-04-06T01:49:45.687Z,64.4958
2024-04-06T01:50:47.009Z,64.8674
2024-04-06T01:51:48.459Z,65.6082
2024-04-06T01:52:49.907Z,65.8605
2024-04-06T01:53:51.315Z,67.2633
2024-04-06T01:54:52.602Z,66.5117
2024-04-06T01:55:53.947Z,66.0858
2024-04-06T01:56:55.345Z,66.5186
2024-04-06T01:57:56.774Z,67.5788
2024-04-06T01:58:58.229Z,64.2455
2024-04-06T01:59:59.672Z,63.4755
2024-04-06T02:01:01.118Z,63.2977
2024-04-06T02:02:02.545Z,62.3875
2024-04-06T02:03:03.848Z,63.0581
2024-04-06T02:04:05.190Z,62.1384
2024-04-06T02:05:06.539Z,62.1172
2024-04-06T02:06:07.949Z,62.2316
2024-04-06T02:07:09.430Z,62.1445
2024-04-06T02:08:10.862Z,63.4526
2024-04-06T02:09:12.316Z,62.7020
2024-04-06T02:10:13.752Z,62.3306
2024-04-06T02:11:15.167Z,63.1839
2024-04-06T02:12:16.639Z,61.6379
2024-04-06T02:13:18.073Z,61.1295
2024-04-06T02:14:19.607Z,61.2349
2024-04-06T02:15:20.924Z,61.9981
2024-04-06T02:16:22.387Z,62.4080
2024-04-06T02:17:23.861Z,62.4151
2024-04-06T02:18:25.267Z,61.5383
2024-04-06T02:19:26.783Z,60.6596
2024-04-06T02:20:28.232Z,61.9991
2024-04-06T02:21:29.594Z,62.0282
2024-04-06T02:22:31.353Z,63.0611
2024-04-06T02:23:32.794Z,62.7223
2024-04-06T02:24:34.261Z,60.9767
2024-04-06T02:25:35.662Z,63.3450
2024-04-06T02:26:37.089Z,64.2148
2024-04-06T02:27:38.552Z,63.4208
2024-04-06T02:28:39.981Z,63.4789
2024-04-06T02:29:41.430Z,61.9424
2024-04-06T02:30:42.709Z,62.4939
2024-04-06T02:31:44.070Z,61.5397
2024-04-06T02:32:45.429Z,61.0393
2024-04-06T02:33:46.856Z,60.7435
2024-04-06T02:34:48.337Z,61.3428
2024-04-06T02:35:49.745Z,61.1795
2024-04-06T02:36:51.037Z,60.3122
2024-04-06T02:37:52.355Z,60.5107
2024-04-06T02:38:53.682Z,62.3158
2024-04-06T02:39:54.955Z,63.9478
2024-04-06T02:40:56.251Z,65.3201
2024-04-06T02:41:57.774Z,68.4447
2024-04-06T02:42:59.261Z,70.3102
2024-04-06T02:44:00.620Z,70.9958
2024-04-06T02:45:02.155Z,72.1816
2024-04-06T02:46:03.501Z,72.2054
2024-04-06T02:47:04.943Z,73.2993
2024-04-06T02:48:06.386Z,74.1650
2024-04-06T02:49:07.816Z,73.4999
2024-04-06T02:50:09.248Z,73.6028
2024-04-06T02:51:10.704Z,74.6465
2024-04-06T02:52:12.143Z,74.9281
2024-04-06T02:53:13.567Z,74.7339
2024-04-06T02:54:15.026Z,75.2589
2024-04-06T02:55:16.466Z,74.6251
2024-04-06T02:56:17.911Z,74.9038
2024-04-06T02:57:19.346Z,75.2734
2024-04-06T02:58:20.755Z,76.7654
2024-04-06T02:59:22.212Z,77.4540
2024-04-06T03:00:23.666Z,78.1076
2024-04-06T03:01:25.097Z,78.6376
2024-04-06T03:02:26.575Z,79.0061
2024-04-06T03:03:27.995Z,78.7958
2024-04-06T03:04:29.415Z,77.4110
2024-04-06T03:05:30.724Z,75.1269
2024-04-06T03:06:32.007Z,71.9353
2024-04-06T03:07:33.526Z,71.6676
2024-04-06T03:08:34.867Z,71.8631
2024-04-06T03:09:36.316Z,70.0482
2024-04-06T03:10:37.732Z,70.0712
2024-04-06T03:11:39.186Z,68.7528
2024-04-06T03:12:40.599Z,68.7414
2024-04-06T03:13:42.068Z,66.9205
2024-04-06T03:14:43.377Z,66.3206
2024-04-06T03:15:44.952Z,67.0078
2024-04-06T03:16:46.385Z,66.8081
2024-04-06T03:17:47.815Z,66.6626
2024-04-06T03:18:49.259Z,66.9727
2024-04-06T03:19:50.715Z,67.4143
2024-04-06T03:20:52.019Z,66.8446
2024-04-06T03:21:53.308Z,67.7699
2024-04-06T03:22:54.712Z,67.9762
2024-04-06T03:23:56.234Z,68.6093
2024-04-06T03:24:57.696Z,69.1244
2024-04-06T03:25:59.028Z,68.8274
2024-04-06T03:27:00.450Z,69.4438
2024-04-06T03:28:01.944Z,69.6171
2024-04-06T03:29:03.335Z,67.8556
2024-04-06T03:30:04.798Z,68.7547
2024-04-06T03:31:06.212Z,68.6753
2024-04-06T03:32:07.746Z,69.6392
2024-04-06T03:33:09.106Z,69.0938
2024-04-06T03:34:10.545Z,69.7170
2024-04-06T03:35:11.988Z,71.0622
2024-04-06T03:36:13.427Z,72.1790
2024-04-06T03:37:14.869Z,72.7150
2024-04-06T03:38:16.301Z,71.3077
2024-04-06T03:39:17.731Z,70.2872
2024-04-06T03:40:19.014Z,69.5637
2024-04-06T03:41:20.344Z,69.9425
2024-04-06T03:42:21.752Z,69.5407
2024-04-06T03:43:23.042Z,68.5634
2024-04-06T03:44:24.437Z,68.7729
2024-04-06T03:45:25.754Z,68.4254
2024-04-06T03:46:27.064Z,67.8316
2024-04-06T03:47:28.379Z,67.0985
2024-04-06T03:48:29.734Z,66.5106
2024-04-06T03:49:31.170Z,65.9548
2024-04-06T03:50:32.674Z,65.3567
2024-04-06T03:51:34.027Z,65.3449
2024-04-06T03:52:35.339Z,66.6581
2024-04-06T03:53:36.620Z,66.6791
2024-04-06T03:54:38.055Z,67.1475
2024-04-06T03:55:39.492Z,67.8162
2024-04-06T03:56:40.946Z,66.9395
2024-04-06T03:57:42.375Z,65.3499
2024-04-06T03:58:43.826Z,66.2141
2024-04-06T03:59:45.266Z,66.1223
2024-04-06T04:00:46.704Z,65.7883
2024-04-06T04:01:48.144Z,65.6953
2024-04-06T04:02:49.574Z,66.7334
2024-04-06T04:03:51.015Z,66.3449
2024-04-06T04:04:52.455Z,67.1134
2024-04-06T04:05:53.910Z,66.2384
2024-04-06T04:06:55.354Z,65.8821
2024-04-06T04:07:56.784Z,66.5317
2024-04-06T04:08:58.234Z,66.3022
2024-04-06T04:09:59.655Z,66.4111
2024-04-06T04:11:01.112Z,66.7099
2024-04-06T04:12:02.530Z,66.6256
2024-04-06T04:13:03.978Z,66.4638
2024-04-06T04:14:05.409Z,66.8564
2024-04-06T04:15:06.853Z,66.1576
2024-04-06T04:16:08.286Z,66.9719
2024-04-06T04:17:09.735Z,67.2491
2024-04-06T04:18:11.174Z,66.9681
2024-04-06T04:19:12.609Z,67.6830
2024-04-06T04:20:13.905Z,67.1726
2024-04-06T04:21:15.198Z,67.8215
2024-04-06T04:22:16.504Z,67.4943
2024-04-06T04:23:17.849Z,67.7020
2024-04-06T04:24:19.164Z,67.4094
2024-04-06T04:25:20.616Z,65.9884
2024-04-06T04:26:22.055Z,65.8470
2024-04-06T04:27:23.498Z,65.8467
2024-04-06T04:28:24.936Z,66.0787
2024-04-06T04:29:26.395Z,66.2245
2024-04-06T04:30:27.826Z,66.1085
2024-04-06T04:31:29.286Z,66.3257
2024-04-06T04:32:30.754Z,67.3082
2024-04-06T04:33:32.140Z,67.6952
2024-04-06T04:34:33.580Z,67.6238
2024-04-06T04:35:35.051Z,67.4594
2024-04-06T04:36:36.386Z,67.7047
2024-04-06T04:37:37.688Z,67.1378
2024-04-06T04:38:39.056Z,66.6304
2024-04-06T04:39:40.462Z,67.1671
2024-04-06T04:40:41.742Z,66.8649
2024-04-06T04:41:43.067Z,67.2286
2024-04-06T04:42:44.462Z,67.4611
2024-04-06T04:43:45.906Z,67.2898
2024-04-06T04:44:53.483Z,66.6230
2024-04-06T04:45:47.529Z,67.0779
2024-04-06T04:46:49.075Z,67.3845
2024-04-06T04:47:50.470Z,68.5681
2024-04-06T04:48:51.774Z,68.8868
2024-04-06T04:49:53.297Z,68.9702
2024-04-06T04:50:54.599Z,69.4196
2024-04-06T04:51:55.949Z,69.6109
2024-04-06T04:52:57.238Z,69.9244
2024-04-06T04:53:58.707Z,70.5970
2024-04-06T04:55:00.171Z,72.5076
2024-04-06T04:56:01.607Z,72.9546
2024-04-06T04:57:02.908Z,73.6814
2024-04-06T04:58:04.297Z,73.9583
2024-04-06T04:59:05.630Z,74.1438
2024-04-06T05:00:07.011Z,73.8641
2024-04-06T05:01:08.539Z,73.6004
2024-04-06T05:02:09.906Z,73.1477
2024-04-06T05:03:11.337Z,73.2019
2024-04-06T05:04:12.607Z,72.7518
2024-04-06T05:05:13.896Z,73.0438
2024-04-06T05:06:15.203Z,72.4332
2024-04-06T05:07:16.458Z,72.9422
2024-04-06T05:08:17.759Z,72.4349
2024-04-06T05:09:19.010Z,69.9121
2024-04-06T05:10:20.259Z,70.6568
2024-04-06T05:11:21.614Z,70.6241
2024-04-06T05:12:23.023Z,68.4547
2024-04-06T05:13:24.471Z,68.8692
2024-04-06T05:14:25.918Z,69.0604
2024-04-06T05:15:27.349Z,67.7088
2024-04-06T05:16:28.833Z,67.2746
2024-04-06T05:17:30.244Z,67.3350
2024-04-06T05:18:31.677Z,67.2739
2024-04-06T05:19:32.982Z,68.3561
2024-04-06T05:20:34.324Z,69.1624
2024-04-06T05:21:35.682Z,68.8630
2024-04-06T05:22:37.112Z,68.3951
2024-04-06T05:23:38.627Z,68.2993
2024-04-06T05:24:39.965Z,67.4607
2024-04-06T05:25:41.234Z,68.2101
2024-04-06T05:26:42.589Z,66.9023
2024-04-06T05:27:43.962Z,65.9307
2024-04-06T05:28:45.231Z,65.5070
2024-04-06T05:29:46.543Z,66.5301
2024-04-06T05:30:47.986Z,66.7124
2024-04-06T05:31:49.418Z,66.3760
2024-04-06T05:32:50.698Z,66.1449
2024-04-06T05:33:51.994Z,65.6016
2024-04-06T05:34:53.432Z,65.3052
2024-04-06T05:35:54.858Z,65.1074
2024-04-06T05:36:56.314Z,66.0868
2024-04-06T05:37:57.738Z,65.5663
2024-04-06T05:38:59.006Z,64.7213
2024-04-06T05:40:00.298Z,64.4654
2024-04-06T05:41:01.737Z,63.8288
2024-04-06T05:42:03.191Z,64.8271
2024-04-06T05:43:04.624Z,65.0281
2024-04-06T05:44:07.597Z,64.2285
2024-04-06T05:45:09.007Z,65.0722
2024-04-06T05:46:10.259Z,63.6554
2024-04-06T05:47:11.669Z,63.7466
2024-04-06T05:48:13.099Z,63.7580
2024-04-06T05:49:14.607Z,63.1639
2024-04-06T05:50:15.988Z,63.0559
2024-04-06T05:51:17.418Z,63.2625
2024-04-06T05:52:18.707Z,62.4958
2024-04-06T05:53:20.066Z,62.1117
2024-04-06T05:54:21.420Z,62.1302
2024-04-06T05:55:22.666Z,61.3216
2024-04-06T05:56:23.987Z,61.9684
2024-04-06T05:57:25.431Z,62.2841
2024-04-06T05:58:26.861Z,61.9053
2024-04-06T05:59:28.321Z,62.5518
2024-04-06T06:00:29.740Z,61.6747
2024-04-06T06:01:31.199Z,62.8463
2024-04-06T06:02:32.728Z,61.6427
2024-04-06T06:03:33.979Z,61.9425
2024-04-06T06:04:35.499Z,62.8616
2024-04-06T06:05:36.789Z,62.9421
2024-04-06T06:06:38.051Z,62.6152
2024-04-06T06:07:39.512Z,62.9902
2024-04-06T06:08:40.953Z,65.7131
2024-04-06T06:09:42.377Z,64.1761
2024-04-06T06:10:43.884Z,64.0816
2024-04-06T06:11:45.271Z,62.0760
2024-04-06T06:12:46.717Z,64.3971
2024-04-06T06:13:48.147Z,63.1772
2024-04-06T06:14:49.576Z,60.8240
2024-04-06T06:15:51.026Z,60.5611
2024-04-06T06:16:52.507Z,61.3716
2024-04-06T06:17:53.923Z,62.3780
2024-04-06T06:18:55.326Z,62.1217
2024-04-06T06:19:56.595Z,60.8734
2024-04-06T06:20:58.007Z,61.8086
2024-04-06T06:21:59.346Z,63.3238
2024-04-06T06:23:00.792Z,63.0033
2024-04-06T06:24:02.254Z,63.2663
2024-04-06T06:25:03.676Z,63.9055
2024-04-06T06:26:05.107Z,61.8340
2024-04-06T06:27:06.568Z,62.4256
2024-04-06T06:28:07.985Z,62.5343
2024-04-06T06:29:09.448Z,62.3388
2024-04-06T06:30:10.868Z,62.9989
2024-04-06T06:31:12.303Z,62.8695
2024-04-06T06:32:13.753Z,62.8923
2024-04-06T06:33:15.195Z,61.6306
2024-04-06T06:34:16.654Z,60.0063
2024-04-06T06:35:18.069Z,60.3855
2024-04-06T06:38:20.511Z,60.4796
2024-04-06T06:41:23.573Z,60.6822
2024-04-06T06:42:24.934Z,61.2893
2024-04-06T06:43:26.384Z,60.4395
2024-04-06T06:44:27.838Z,59.3738
2024-04-06T06:45:29.269Z,61.0371
2024-04-06T06:46:30.693Z,59.7479
2024-04-06T06:47:32.179Z,61.1599
2024-04-06T06:48:33.570Z,59.3471
2024-04-06T06:49:35.017Z,58.6068
2024-04-06T06:50:36.455Z,60.1371
2024-04-06T06:51:37.896Z,61.5821
2024-04-06T06:52:39.352Z,61.6491
2024-04-06T06:53:40.622Z,60.5642
2024-04-06T06:54:42.828Z,61.4374
2024-04-06T06:55:44.237Z,62.3172
2024-04-06T06:56:45.682Z,64.4278
2024-04-06T06:57:47.131Z,64.7169
2024-04-06T06:58:48.366Z,64.6024
2024-04-06T07:00:50.346Z,62.6004
2024-04-06T07:01:51.650Z,63.3286
2024-04-06T07:02:52.909Z,65.0949
2024-04-06T07:03:54.208Z,62.4742
2024-04-06T07:04:55.458Z,62.4711
2024-04-06T07:05:56.897Z,60.8077
2024-04-06T07:07:58.937Z,62.3442
2024-04-06T07:09:02.748Z,60.5983
2024-04-06T07:10:00.786Z,61.6105
2024-04-06T07:11:02.078Z,61.9270
2024-04-06T07:12:03.325Z,61.9994
2024-04-06T07:13:04.652Z,61.5454
2024-04-06T07:14:06.082Z,61.1074
2024-04-06T07:15:07.498Z,59.8899
2024-04-06T07:16:08.775Z,59.9538
2024-04-06T07:17:10.060Z,59.5249
2024-04-06T07:18:11.329Z,59.6975
2024-04-06T07:19:12.927Z,58.7721
2024-04-06T07:20:14.190Z,58.7628
2024-04-06T07:21:15.505Z,58.4561
2024-04-06T07:22:16.956Z,58.6780
2024-04-06T07:23:18.286Z,58.5146
2024-04-06T07:24:19.553Z,59.0050
2024-04-06T07:25:20.814Z,60.0000
2024-04-06T07:26:22.078Z,60.1557
2024-04-06T07:27:23.503Z,57.6685
2024-04-06T07:28:24.942Z,58.3279
2024-04-06T07:29:26.386Z,58.0107
2024-04-06T07:30:27.833Z,57.1848
2024-04-06T07:31:29.279Z,57.8808
2024-04-06T07:32:30.770Z,59.8693
2024-04-06T07:33:32.124Z,58.1634
2024-04-06T07:34:33.595Z,56.1148
2024-04-06T07:35:35.020Z,55.9322
2024-04-06T07:36:36.471Z,55.1563
2024-04-06T07:37:37.898Z,54.7737
2024-04-06T07:39:20.084Z,55.3173
2024-04-06T07:39:39.298Z,56.0651
2024-04-06T07:40:40.625Z,57.1461
2024-04-06T07:41:42.055Z,58.8367
2024-04-06T07:42:43.498Z,56.0262
2024-04-06T07:43:44.944Z,57.0302
2024-04-06T07:44:46.380Z,54.8088
2024-04-06T07:45:47.671Z,54.2786
2024-04-06T07:46:49.525Z,56.9024
2024-04-06T07:47:50.968Z,55.4004
2024-04-06T07:48:52.381Z,55.0424
2024-04-06T07:49:53.835Z,56.1534
2024-04-06T07:50:55.286Z,56.7478
2024-04-06T07:51:56.728Z,54.8775
2024-04-06T07:52:58.151Z,53.3727
2024-04-06T07:53:59.442Z,55.3386
2024-04-06T07:55:00.727Z,55.9578
2024-04-06T07:56:02.018Z,54.9056
2024-04-06T07:57:03.425Z,57.2626
2024-04-06T07:58:04.713Z,57.6191
2024-04-06T07:59:06.014Z,57.8133
2024-04-06T08:00:07.454Z,57.2185
2024-04-06T08:01:08.797Z,57.1243
2024-04-06T08:02:10.208Z,56.1128
2024-04-06T08:03:11.657Z,54.8468
2024-04-06T08:04:12.981Z,53.9807
2024-04-06T08:05:14.305Z,54.2902
2024-04-06T08:06:15.697Z,57.1414
2024-04-06T08:07:17.131Z,56.5642
2024-04-06T08:08:18.456Z,57.4650
2024-04-06T08:09:19.745Z,56.6272
2024-04-06T08:10:21.226Z,58.2916
2024-04-06T08:11:22.537Z,55.7549
2024-04-06T08:12:23.997Z,57.0086
2024-04-06T08:13:25.431Z,57.5369
2024-04-06T08:14:26.846Z,55.3426
2024-04-06T08:15:30.830Z,55.9873
2024-04-06T08:16:29.738Z,56.9128
2024-04-06T08:17:31.197Z,56.5492
2024-04-06T08:18:32.620Z,56.4766
2024-04-06T08:19:34.066Z,54.8886
2024-04-06T08:20:35.494Z,57.4239
2024-04-06T08:21:36.788Z,55.6253
2024-04-06T08:22:38.053Z,54.6400
2024-04-06T08:23:39.502Z,55.6135
2024-04-06T08:24:40.996Z,55.9481
2024-04-06T08:25:42.411Z,56.5282
2024-04-06T08:26:43.813Z,54.9327
2024-04-06T08:27:45.097Z,54.3084
2024-04-06T08:28:46.526Z,55.7741
2024-04-06T08:29:47.818Z,54.3201
2024-04-06T08:30:49.121Z,55.6547
2024-04-06T08:31:50.462Z,55.1179
2024-04-06T08:32:51.730Z,54.7036
2024-04-06T08:33:53.036Z,53.5522
2024-04-06T08:34:54.393Z,53.8095
2024-04-06T08:35:55.822Z,54.6035
2024-04-06T08:36:57.270Z,53.6860
2024-04-06T08:37:58.723Z,52.8296
2024-04-06T08:39:00.148Z,53.8815
2024-04-06T08:40:01.604Z,55.3447
2024-04-06T08:41:03.017Z,53.8931
2024-04-06T08:42:04.459Z,53.6266
2024-04-06T08:43:05.911Z,54.2561
2024-04-06T08:44:07.348Z,54.6225
2024-04-06T08:45:08.765Z,54.3696
2024-04-06T08:46:10.252Z,54.6577
2024-04-06T08:47:11.656Z,54.9736
2024-04-06T08:48:13.102Z,54.5924
2024-04-06T08:49:14.580Z,53.7793
2024-04-06T08:50:15.986Z,53.9956
2024-04-06T08:51:17.422Z,54.2340
2024-04-06T08:52:18.857Z,52.3830
2024-04-06T08:53:20.343Z,52.8507
2024-04-06T08:54:21.767Z,53.1845
2024-04-06T08:55:23.177Z,52.4952
2024-04-06T08:56:24.627Z,52.4506
2024-04-06T08:57:26.056Z,52.4201
2024-04-06T08:58:27.356Z,54.1932
2024-04-06T08:59:28.636Z,51.8178
2024-04-06T09:00:30.098Z,51.6259
2024-04-06T09:01:31.488Z,52.7784
2024-04-06T09:02:32.935Z,52.7216
2024-04-06T09:03:34.389Z,51.8521
2024-04-06T09:04:35.839Z,52.5906
2024-04-06T09:05:37.247Z,53.7440
2024-04-06T09:06:38.694Z,52.2671
2024-04-06T09:07:40.133Z,53.3979
2024-04-06T09:08:41.580Z,50.8435
2024-04-06T09:09:43.012Z,50.7065
2024-04-06T09:10:44.464Z,48.9205
2024-04-06T09:11:45.894Z,48.1537
2024-04-06T09:12:47.379Z,48.3399
2024-04-06T09:13:48.907Z,48.4487
2024-04-06T09:14:50.245Z,47.8022
2024-04-06T09:15:51.662Z,50.1071
2024-04-06T09:16:53.170Z,51.2932
2024-04-06T09:17:54.541Z,50.7885
2024-04-06T09:18:55.979Z,48.9641
2024-04-06T09:19:57.425Z,50.5792
2024-04-06T09:20:58.863Z,48.5729
2024-04-06T09:22:00.300Z,48.1084
2024-04-06T09:23:01.577Z,46.8889
2024-04-06T09:24:02.844Z,47.8883
2024-04-06T09:25:04.338Z,47.8868
2024-04-06T09:26:05.603Z,48.3172
2024-04-06T09:27:06.895Z,49.7233
2024-04-06T09:28:08.318Z,50.6871
2024-04-06T09:29:09.753Z,48.4075
2024-04-06T09:30:11.125Z,49.1665
2024-04-06T09:31:12.459Z,49.8633
2024-04-06T09:32:13.744Z,46.6540
2024-04-06T09:33:15.180Z,44.5349
2024-04-06T09:34:16.649Z,46.9762
2024-04-06T09:35:18.120Z,47.3823
2024-04-06T09:36:19.587Z,46.6710
2024-04-06T09:37:20.944Z,46.1985
2024-04-06T09:38:25.663Z,47.3103
2024-04-06T09:39:23.826Z,50.5570
2024-04-06T09:40:25.254Z,51.1064
2024-04-06T09:41:26.698Z,48.5056
2024-04-06T09:42:27.977Z,48.6705
2024-04-06T09:43:29.276Z,48.9379
2024-04-06T09:44:30.708Z,49.6882
2024-04-06T09:45:32.145Z,48.9272
2024-04-06T09:46:33.596Z,48.4789
2024-04-06T09:47:35.014Z,46.2789
2024-04-06T09:48:36.455Z,46.2721
2024-04-06T09:49:37.815Z,49.6899
2024-04-06T09:50:39.105Z,49.4490
2024-04-06T09:51:40.465Z,50.3593
2024-04-06T09:52:41.898Z,51.6108
2024-04-06T09:53:43.343Z,49.8086
2024-04-06T09:54:44.776Z,50.2908
2024-04-06T09:55:46.225Z,49.1652
2024-04-06T09:56:47.679Z,48.9614
2024-04-06T09:57:48.941Z,49.6563
2024-04-06T09:58:50.249Z,50.3579
2024-04-06T09:59:52.397Z,51.1644
2024-04-06T10:00:54.667Z,49.7749
2024-04-06T10:01:56.106Z,52.2759
2024-04-06T10:02:57.548Z,50.7000
2024-04-06T10:03:58.978Z,52.6914
2024-04-06T10:05:00.347Z,51.7763
2024-04-06T10:06:01.621Z,52.7900
2024-04-06T10:07:02.908Z,51.9842
2024-04-06T10:08:04.252Z,52.4726
2024-04-06T10:09:05.560Z,53.2809
2024-04-06T10:10:07.016Z,51.4517
2024-04-06T10:11:08.464Z,50.9711
2024-04-06T10:12:09.904Z,51.6785
2024-04-06T10:13:11.350Z,51.5158
2024-04-06T10:14:13.795Z,52.6545
2024-04-06T10:15:16.079Z,50.0678
2024-04-06T10:16:17.456Z,48.2954
2024-04-06T10:17:18.744Z,50.1394
2024-04-06T10:18:20.138Z,48.8880
2024-04-06T10:19:21.599Z,49.1691
2024-04-06T10:20:22.855Z,48.1510
2024-04-06T10:21:24.141Z,49.0020
2024-04-06T10:22:25.600Z,48.0804
2024-04-06T10:23:27.028Z,49.3089
2024-04-06T10:24:28.458Z,49.8233
2024-04-06T10:25:29.898Z,49.6131
2024-04-06T10:26:31.341Z,48.6252
2024-04-06T10:27:32.772Z,49.1507
2024-04-06T10:28:34.234Z,49.9125
2024-04-06T10:29:35.656Z,50.2268
2024-04-06T10:30:37.120Z,52.3513
2024-04-06T10:31:46.058Z,51.0781
2024-04-06T10:32:38.668Z,50.5102
2024-04-06T10:33:40.116Z,51.0500
2024-04-06T10:34:49.690Z,51.4295
2024-04-06T10:35:41.597Z,48.6881
2024-04-06T10:36:42.919Z,50.2077
2024-04-06T10:37:44.246Z,47.6397
2024-04-06T10:38:45.627Z,47.3329
2024-04-06T10:39:46.881Z,47.8235
2024-04-06T10:40:48.308Z,48.5974
2024-04-06T10:41:49.855Z,50.2577
2024-04-06T10:42:51.176Z,49.3765
2024-04-06T10:43:52.622Z,48.7339
2024-04-06T10:44:54.056Z,47.7186
2024-04-06T10:45:55.528Z,46.9350
2024-04-06T10:46:56.990Z,45.3861
2024-04-06T10:47:58.404Z,45.2717
2024-04-06T10:48:59.767Z,45.5335
2024-04-06T10:50:01.125Z,44.6383
2024-04-06T10:51:02.447Z,46.7178
2024-04-06T10:52:03.819Z,45.2353
2024-04-06T10:53:05.242Z,45.9744
2024-04-06T10:54:06.691Z,45.1173
2024-04-06T10:55:08.131Z,45.0063
2024-04-06T10:56:09.658Z,43.3385
2024-04-06T10:57:11.101Z,44.4680
2024-04-06T10:58:12.481Z,42.7871
2024-04-06T10:59:13.814Z,41.3380
2024-04-06T11:00:15.104Z,41.8009
2024-04-06T11:01:16.483Z,42.1657
2024-04-06T11:02:17.904Z,42.9965
2024-04-06T11:03:19.348Z,45.2584
2024-04-06T11:04:20.898Z,45.0007
2024-04-06T11:05:22.266Z,45.7288
2024-04-06T11:06:23.669Z,46.3518
2024-04-06T11:07:25.099Z,45.6728
2024-04-06T11:08:26.365Z,45.0676
2024-04-06T11:09:27.645Z,44.8358
2024-04-06T11:10:28.934Z,43.5575
2024-04-06T11:11:30.209Z,44.7500
2024-04-06T11:12:31.657Z,43.0530
2024-04-06T11:13:33.102Z,40.7330
2024-04-06T11:14:34.537Z,40.7350
2024-04-06T11:15:35.987Z,42.7809
2024-04-06T11:16:37.539Z,45.7020
2024-04-06T11:17:38.931Z,46.6871
2024-04-06T11:18:42.159Z,45.8608
2024-04-06T11:19:43.628Z,42.4614
2024-04-06T11:20:45.087Z,42.3836
2024-04-06T11:21:46.434Z,44.1186
2024-04-06T11:22:47.768Z,44.0122
2024-04-06T11:23:49.405Z,43.1044
2024-04-06T11:24:50.847Z,42.4875
2024-04-06T11:25:52.274Z,39.6039
2024-04-06T11:26:53.717Z,41.3683
2024-04-06T11:27:55.204Z,42.3402
2024-04-06T11:28:56.608Z,41.5077
2024-04-06T11:29:58.880Z,41.7356
2024-04-06T11:31:01.430Z,40.8814
2024-04-06T11:32:02.699Z,39.9367
2024-04-06T11:33:04.001Z,40.7815
2024-04-06T11:34:05.418Z,40.7463
2024-04-06T11:35:06.872Z,41.4982
2024-04-06T11:36:08.308Z,40.9938
2024-04-06T11:37:09.815Z,40.4297
2024-04-06T11:38:11.175Z,40.7130
2024-04-06T11:39:12.612Z,39.9177
2024-04-06T11:40:14.062Z,41.4923
2024-04-06T11:41:15.498Z,41.7507
2024-04-06T11:42:16.956Z,41.9983
2024-04-06T11:43:18.546Z,40.9017
2024-04-06T11:44:19.805Z,39.8672
2024-04-06T11:45:21.284Z,40.0250
2024-04-06T11:46:22.754Z,39.1977
2024-04-06T11:47:24.147Z,38.2972
2024-04-06T11:48:26.982Z,39.7605
2024-04-06T11:49:26.108Z,39.4656
2024-04-06T11:50:27.421Z,39.1755
2024-04-06T11:51:28.762Z,39.3271
2024-04-06T11:52:30.037Z,38.7076
2024-04-06T11:53:31.518Z,40.9277
2024-04-06T11:54:32.945Z,40.2330
2024-04-06T11:55:34.387Z,41.4579
2024-04-06T11:56:35.806Z,38.9408
2024-04-06T11:57:37.266Z,38.5642
2024-04-06T11:58:38.533Z,40.3035
2024-04-06T11:59:39.854Z,38.7890
2024-04-06T12:00:41.279Z,41.5891
2024-04-06T12:01:42.711Z,38.4573
2024-04-06T12:02:44.144Z,37.4044
2024-04-06T12:03:45.630Z,37.6836
2024-04-06T12:04:47.022Z,38.7464
2024-04-06T12:05:48.467Z,38.8566
2024-04-06T12:06:49.934Z,39.4416
2024-04-06T12:07:51.344Z,37.6340
2024-04-06T12:08:52.762Z,40.0193
2024-04-06T12:09:54.225Z,38.3435
2024-04-06T12:10:55.656Z,36.0514
2024-04-06T12:11:59.143Z,36.3051
2024-04-06T12:13:00.528Z,38.1800
2024-04-06T12:14:01.898Z,37.9514
2024-04-06T12:15:03.188Z,38.2765
2024-04-06T12:16:04.509Z,38.2150
2024-04-06T12:17:05.824Z,36.5706
2024-04-06T12:18:07.141Z,36.2387
2024-04-06T12:19:08.457Z,37.4526
2024-04-06T12:20:09.922Z,36.4214
2024-04-06T12:21:11.331Z,37.6073
2024-04-06T12:22:12.777Z,40.2932
2024-04-06T12:23:14.221Z,39.5296
2024-04-06T12:24:15.686Z,37.0170
2024-04-06T12:25:17.160Z,36.2444
2024-04-06T12:26:18.537Z,38.5357
2024-04-06T12:27:19.864Z,40.1774
2024-04-06T12:28:21.157Z,40.6533